sensor_id;sensor_type;location;lat;lon;timestamp;P1;durP1;ratioP1;P2;durP2;ratioP2
18194;SDS011;9223;50.988;3.162;2023-04-28T00:02:53;27.77;;;17.73;;
18194;SDS011;9223;50.988;3.162;2023-04-28T00:08:57;31.38;;;18.67;;
18194;SDS011;9223;50.988;3.162;2023-04-28T00:15:02;30.10;;;18.42;;
18194;SDS011;9223;50.988;3.162;2023-04-28T00:21:06;24.30;;;17.05;;
18194;SDS011;9223;50.988;3.162;2023-04-28T00:27:10;26.58;;;17.35;;
18194;SDS011;9223;50.988;3.162;2023-04-28T00:33:15;25.50;;;17.83;;
18194;SDS011;9223;50.988;3.162;2023-04-28T00:39:18;27.15;;;18.58;;
18194;SDS011;9223;50.988;3.162;2023-04-28T00:45:23;27.40;;;18.15;;
18194;SDS011;9223;50.988;3.162;2023-04-28T00:51:28;28.05;;;18.88;;
18194;SDS011;9223;50.988;3.162;2023-04-28T00:57:34;27.70;;;18.40;;
18194;SDS011;9223;50.988;3.162;2023-04-28T01:03:39;26.92;;;18.50;;
18194;SDS011;9223;50.988;3.162;2023-04-28T01:09:44;25.80;;;18.63;;
18194;SDS011;9223;50.988;3.162;2023-04-28T01:15:48;27.92;;;18.80;;
18194;SDS011;9223;50.988;3.162;2023-04-28T01:21:52;27.17;;;18.65;;
18194;SDS011;9223;50.988;3.162;2023-04-28T01:27:56;32.13;;;19.30;;
18194;SDS011;9223;50.988;3.162;2023-04-28T01:34:00;27.30;;;18.48;;
18194;SDS011;9223;50.988;3.162;2023-04-28T01:40:05;30.65;;;20.35;;
18194;SDS011;9223;50.988;3.162;2023-04-28T01:46:10;26.25;;;18.80;;
18194;SDS011;9223;50.988;3.162;2023-04-28T01:52:13;33.30;;;20.83;;
18194;SDS011;9223;50.988;3.162;2023-04-28T01:58:17;32.38;;;21.08;;
18194;SDS011;9223;50.988;3.162;2023-04-28T02:04:22;30.05;;;20.50;;
18194;SDS011;9223;50.988;3.162;2023-04-28T02:10:25;30.13;;;19.65;;
18194;SDS011;9223;50.988;3.162;2023-04-28T02:16:29;30.52;;;19.75;;
18194;SDS011;9223;50.988;3.162;2023-04-28T02:22:35;28.25;;;18.90;;
18194;SDS011;9223;50.988;3.162;2023-04-28T02:28:38;28.13;;;18.90;;
18194;SDS011;9223;50.988;3.162;2023-04-28T02:34:42;26.67;;;17.65;;
18194;SDS011;9223;50.988;3.162;2023-04-28T02:40:46;26.30;;;17.20;;
18194;SDS011;9223;50.988;3.162;2023-04-28T02:46:50;29.65;;;18.92;;
18194;SDS011;9223;50.988;3.162;2023-04-28T02:52:53;27.00;;;17.65;;
18194;SDS011;9223;50.988;3.162;2023-04-28T02:58:58;26.20;;;17.92;;
18194;SDS011;9223;50.988;3.162;2023-04-28T03:05:02;26.20;;;21.33;;
18194;SDS011;9223;50.988;3.162;2023-04-28T03:11:06;56.33;;;45.95;;
18194;SDS011;9223;50.988;3.162;2023-04-28T03:17:11;55.15;;;45.17;;
18194;SDS011;9223;50.988;3.162;2023-04-28T03:23:14;25.73;;;18.80;;
18194;SDS011;9223;50.988;3.162;2023-04-28T03:29:18;25.33;;;19.58;;
18194;SDS011;9223;50.988;3.162;2023-04-28T03:35:23;24.98;;;16.35;;
18194;SDS011;9223;50.988;3.162;2023-04-28T03:41:26;21.23;;;15.88;;
18194;SDS011;9223;50.988;3.162;2023-04-28T03:47:30;19.73;;;15.23;;
18194;SDS011;9223;50.988;3.162;2023-04-28T03:53:35;17.83;;;13.55;;
18194;SDS011;9223;50.988;3.162;2023-04-28T03:59:38;14.38;;;11.43;;
18194;SDS011;9223;50.988;3.162;2023-04-28T04:05:41;13.52;;;11.20;;
18194;SDS011;9223;50.988;3.162;2023-04-28T04:11:47;13.55;;;9.98;;
18194;SDS011;9223;50.988;3.162;2023-04-28T04:17:50;10.85;;;8.75;;
18194;SDS011;9223;50.988;3.162;2023-04-28T04:23:54;6.82;;;5.75;;
18194;SDS011;9223;50.988;3.162;2023-04-28T04:29:58;12.00;;;9.15;;
18194;SDS011;9223;50.988;3.162;2023-04-28T04:36:02;9.80;;;8.18;;
18194;SDS011;9223;50.988;3.162;2023-04-28T04:42:06;11.48;;;8.80;;
18194;SDS011;9223;50.988;3.162;2023-04-28T04:48:26;9.38;;;7.68;;
18194;SDS011;9223;50.988;3.162;2023-04-28T04:54:30;9.50;;;7.35;;
18194;SDS011;9223;50.988;3.162;2023-04-28T05:00:33;9.05;;;6.05;;
18194;SDS011;9223;50.988;3.162;2023-04-28T05:06:39;5.93;;;5.10;;
18194;SDS011;9223;50.988;3.162;2023-04-28T05:12:42;10.70;;;5.40;;
18194;SDS011;9223;50.988;3.162;2023-04-28T05:18:49;5.53;;;4.88;;
18194;SDS011;9223;50.988;3.162;2023-04-28T05:24:54;6.45;;;4.25;;
18194;SDS011;9223;50.988;3.162;2023-04-28T05:30:57;8.32;;;4.57;;
18194;SDS011;9223;50.988;3.162;2023-04-28T05:37:01;5.03;;;4.32;;
18194;SDS011;9223;50.988;3.162;2023-04-28T05:43:06;5.63;;;4.88;;
18194;SDS011;9223;50.988;3.162;2023-04-28T05:49:09;4.78;;;4.10;;
18194;SDS011;9223;50.988;3.162;2023-04-28T05:55:13;4.15;;;3.55;;
18194;SDS011;9223;50.988;3.162;2023-04-28T06:01:18;6.57;;;3.70;;
18194;SDS011;9223;50.988;3.162;2023-04-28T06:07:21;4.88;;;3.63;;
18194;SDS011;9223;50.988;3.162;2023-04-28T06:13:24;8.60;;;4.15;;
18194;SDS011;9223;50.988;3.162;2023-04-28T06:19:29;4.47;;;3.42;;
18194;SDS011;9223;50.988;3.162;2023-04-28T06:25:33;4.18;;;2.67;;
18194;SDS011;9223;50.988;3.162;2023-04-28T06:31:37;3.95;;;2.47;;
18194;SDS011;9223;50.988;3.162;2023-04-28T06:37:42;4.25;;;2.67;;
18194;SDS011;9223;50.988;3.162;2023-04-28T06:43:46;4.10;;;2.25;;
18194;SDS011;9223;50.988;3.162;2023-04-28T06:49:49;4.03;;;2.35;;
18194;SDS011;9223;50.988;3.162;2023-04-28T06:55:54;2.63;;;2.10;;
18194;SDS011;9223;50.988;3.162;2023-04-28T07:01:58;5.82;;;2.55;;
18194;SDS011;9223;50.988;3.162;2023-04-28T07:08:01;3.45;;;2.28;;
18194;SDS011;9223;50.988;3.162;2023-04-28T07:14:06;6.90;;;2.17;;
18194;SDS011;9223;50.988;3.162;2023-04-28T07:20:10;1.92;;;1.67;;
18194;SDS011;9223;50.988;3.162;2023-04-28T07:26:14;1.88;;;1.70;;
18194;SDS011;9223;50.988;3.162;2023-04-28T07:32:19;2.97;;;1.85;;
18194;SDS011;9223;50.988;3.162;2023-04-28T07:38:22;79.13;;;26.25;;
18194;SDS011;9223;50.988;3.162;2023-04-28T07:44:26;5.43;;;3.05;;
18194;SDS011;9223;50.988;3.162;2023-04-28T07:50:30;3.33;;;1.90;;
18194;SDS011;9223;50.988;3.162;2023-04-28T07:56:34;2.08;;;1.88;;
18194;SDS011;9223;50.988;3.162;2023-04-28T08:02:37;2.33;;;1.83;;
18194;SDS011;9223;50.988;3.162;2023-04-28T08:08:42;2.65;;;1.83;;
18194;SDS011;9223;50.988;3.162;2023-04-28T08:14:46;2.17;;;1.40;;
18194;SDS011;9223;50.988;3.162;2023-04-28T08:20:49;2.58;;;1.65;;
18194;SDS011;9223;50.988;3.162;2023-04-28T08:26:55;4.03;;;1.75;;
18194;SDS011;9223;50.988;3.162;2023-04-28T08:32:58;2.65;;;1.83;;
18194;SDS011;9223;50.988;3.162;2023-04-28T08:39:02;1.83;;;1.60;;
18194;SDS011;9223;50.988;3.162;2023-04-28T08:45:11;3.28;;;1.70;;
18194;SDS011;9223;50.988;3.162;2023-04-28T08:51:17;1.73;;;1.42;;
18194;SDS011;9223;50.988;3.162;2023-04-28T08:57:26;4.00;;;1.95;;
18194;SDS011;9223;50.988;3.162;2023-04-28T09:03:31;2.65;;;1.58;;
18194;SDS011;9223;50.988;3.162;2023-04-28T09:09:34;3.03;;;1.80;;
18194;SDS011;9223;50.988;3.162;2023-04-28T09:15:39;1.80;;;1.20;;
18194;SDS011;9223;50.988;3.162;2023-04-28T09:21:48;1.95;;;1.25;;
18194;SDS011;9223;50.988;3.162;2023-04-28T09:27:52;2.53;;;1.10;;
18194;SDS011;9223;50.988;3.162;2023-04-28T09:33:55;1.30;;;0.90;;
18194;SDS011;9223;50.988;3.162;2023-04-28T09:40:04;1.75;;;0.80;;
18194;SDS011;9223;50.988;3.162;2023-04-28T09:46:08;1.60;;;1.20;;
18194;SDS011;9223;50.988;3.162;2023-04-28T09:52:12;1.73;;;1.40;;
18194;SDS011;9223;50.988;3.162;2023-04-28T09:58:16;2.30;;;1.00;;
18194;SDS011;9223;50.988;3.162;2023-04-28T10:04:21;0.85;;;0.80;;
18194;SDS011;9223;50.988;3.162;2023-04-28T10:10:25;1.30;;;0.90;;
18194;SDS011;9223;50.988;3.162;2023-04-28T10:16:30;1.13;;;1.02;;
18194;SDS011;9223;50.988;3.162;2023-04-28T10:22:39;1.55;;;1.42;;
18194;SDS011;9223;50.988;3.162;2023-04-28T10:28:48;1.13;;;0.98;;
18194;SDS011;9223;50.988;3.162;2023-04-28T10:34:53;1.67;;;1.10;;
18194;SDS011;9223;50.988;3.162;2023-04-28T10:54:12;1.00;;;0.90;;
18194;SDS011;9223;50.988;3.162;2023-04-28T11:00:26;1.10;;;0.93;;
18194;SDS011;9223;50.988;3.162;2023-04-28T11:06:31;1.67;;;1.30;;
18194;SDS011;9223;50.988;3.162;2023-04-28T11:12:37;1.65;;;0.80;;
18194;SDS011;9223;50.988;3.162;2023-04-28T11:19:01;2.15;;;1.00;;
18194;SDS011;9223;50.988;3.162;2023-04-28T11:25:07;1.48;;;1.00;;
18194;SDS011;9223;50.988;3.162;2023-04-28T11:31:12;1.83;;;1.10;;
18194;SDS011;9223;50.988;3.162;2023-04-28T11:37:19;1.48;;;0.82;;
18194;SDS011;9223;50.988;3.162;2023-04-28T11:43:27;0.93;;;0.90;;
18194;SDS011;9223;50.988;3.162;2023-04-28T11:49:48;1.23;;;0.90;;
18194;SDS011;9223;50.988;3.162;2023-04-28T11:56:03;1.05;;;0.98;;
18194;SDS011;9223;50.988;3.162;2023-04-28T12:02:08;1.30;;;1.10;;
18194;SDS011;9223;50.988;3.162;2023-04-28T12:08:13;1.63;;;0.80;;
18194;SDS011;9223;50.988;3.162;2023-04-28T12:14:29;1.25;;;0.95;;
18194;SDS011;9223;50.988;3.162;2023-04-28T12:20:36;0.98;;;0.85;;
18194;SDS011;9223;50.988;3.162;2023-04-28T12:26:41;0.70;;;0.70;;
18194;SDS011;9223;50.988;3.162;2023-04-28T12:32:45;0.93;;;0.70;;
18194;SDS011;9223;50.988;3.162;2023-04-28T12:38:49;1.30;;;1.10;;
18194;SDS011;9223;50.988;3.162;2023-04-28T12:44:54;0.85;;;0.80;;
18194;SDS011;9223;50.988;3.162;2023-04-28T12:50:57;0.82;;;0.75;;
18194;SDS011;9223;50.988;3.162;2023-04-28T12:57:01;1.00;;;0.90;;
18194;SDS011;9223;50.988;3.162;2023-04-28T13:03:06;1.20;;;1.10;;
18194;SDS011;9223;50.988;3.162;2023-04-28T13:09:10;1.42;;;1.17;;
18194;SDS011;9223;50.988;3.162;2023-04-28T13:15:13;0.90;;;0.80;;
18194;SDS011;9223;50.988;3.162;2023-04-28T13:21:18;1.00;;;0.82;;
18194;SDS011;9223;50.988;3.162;2023-04-28T13:27:22;1.05;;;0.90;;
18194;SDS011;9223;50.988;3.162;2023-04-28T13:33:25;1.38;;;0.95;;
18194;SDS011;9223;50.988;3.162;2023-04-28T13:39:33;1.67;;;0.77;;
18194;SDS011;9223;50.988;3.162;2023-04-28T13:45:36;2.35;;;0.82;;
18194;SDS011;9223;50.988;3.162;2023-04-28T13:51:40;0.95;;;0.60;;
18194;SDS011;9223;50.988;3.162;2023-04-28T13:57:44;1.08;;;0.50;;
18194;SDS011;9223;50.988;3.162;2023-04-28T14:03:48;0.90;;;0.52;;
18194;SDS011;9223;50.988;3.162;2023-04-28T14:09:51;1.15;;;0.77;;
18194;SDS011;9223;50.988;3.162;2023-04-28T14:15:56;2.00;;;1.08;;
18194;SDS011;9223;50.988;3.162;2023-04-28T14:22:00;1.35;;;0.70;;
18194;SDS011;9223;50.988;3.162;2023-04-28T14:28:03;1.02;;;0.82;;
18194;SDS011;9223;50.988;3.162;2023-04-28T14:34:08;0.82;;;0.65;;
18194;SDS011;9223;50.988;3.162;2023-04-28T14:40:12;2.17;;;0.90;;
18194;SDS011;9223;50.988;3.162;2023-04-28T14:46:16;2.22;;;0.70;;
18194;SDS011;9223;50.988;3.162;2023-04-28T14:52:24;2.42;;;0.80;;
18194;SDS011;9223;50.988;3.162;2023-04-28T14:58:29;0.90;;;0.90;;
18194;SDS011;9223;50.988;3.162;2023-04-28T15:04:33;1.00;;;0.90;;
18194;SDS011;9223;50.988;3.162;2023-04-28T15:10:38;0.93;;;0.77;;
18194;SDS011;9223;50.988;3.162;2023-04-28T15:16:42;1.55;;;0.90;;
18194;SDS011;9223;50.988;3.162;2023-04-28T15:22:45;1.98;;;1.25;;
18194;SDS011;9223;50.988;3.162;2023-04-28T15:28:50;1.77;;;1.35;;
18194;SDS011;9223;50.988;3.162;2023-04-28T15:34:54;2.92;;;2.17;;
18194;SDS011;9223;50.988;3.162;2023-04-28T15:40:57;1.98;;;1.10;;
18194;SDS011;9223;50.988;3.162;2023-04-28T15:47:02;2.13;;;1.70;;
18194;SDS011;9223;50.988;3.162;2023-04-28T15:53:05;2.55;;;1.38;;
18194;SDS011;9223;50.988;3.162;2023-04-28T15:59:09;3.50;;;1.10;;
18194;SDS011;9223;50.988;3.162;2023-04-28T16:05:17;3.85;;;2.83;;
18194;SDS011;9223;50.988;3.162;2023-04-28T16:11:21;4.80;;;3.40;;
18194;SDS011;9223;50.988;3.162;2023-04-28T16:17:24;9.82;;;2.85;;
18194;SDS011;9223;50.988;3.162;2023-04-28T16:23:30;4.65;;;3.40;;
18194;SDS011;9223;50.988;3.162;2023-04-28T16:29:34;3.67;;;2.70;;
18194;SDS011;9223;50.988;3.162;2023-04-28T16:35:37;6.07;;;3.67;;
18194;SDS011;9223;50.988;3.162;2023-04-28T16:41:42;4.68;;;2.55;;
18194;SDS011;9223;50.988;3.162;2023-04-28T16:47:46;3.22;;;1.83;;
18194;SDS011;9223;50.988;3.162;2023-04-28T16:53:49;3.30;;;2.53;;
18194;SDS011;9223;50.988;3.162;2023-04-28T16:59:55;6.05;;;3.40;;
18194;SDS011;9223;50.988;3.162;2023-04-28T17:05:58;5.03;;;3.00;;
18194;SDS011;9223;50.988;3.162;2023-04-28T17:12:02;2.15;;;1.95;;
18194;SDS011;9223;50.988;3.162;2023-04-28T17:18:07;5.65;;;4.00;;
18194;SDS011;9223;50.988;3.162;2023-04-28T17:24:11;3.08;;;2.65;;
18194;SDS011;9223;50.988;3.162;2023-04-28T17:30:15;3.30;;;2.72;;
18194;SDS011;9223;50.988;3.162;2023-04-28T17:36:20;4.88;;;2.60;;
18194;SDS011;9223;50.988;3.162;2023-04-28T17:42:27;5.40;;;3.03;;
18194;SDS011;9223;50.988;3.162;2023-04-28T17:48:31;6.07;;;3.13;;
18194;SDS011;9223;50.988;3.162;2023-04-28T17:54:36;6.72;;;2.70;;
18194;SDS011;9223;50.988;3.162;2023-04-28T18:00:40;5.10;;;2.60;;
18194;SDS011;9223;50.988;3.162;2023-04-28T18:06:43;3.97;;;1.90;;
18194;SDS011;9223;50.988;3.162;2023-04-28T18:12:48;4.55;;;2.20;;
18194;SDS011;9223;50.988;3.162;2023-04-28T18:18:54;4.25;;;3.00;;
18194;SDS011;9223;50.988;3.162;2023-04-28T18:24:57;10.18;;;4.50;;
18194;SDS011;9223;50.988;3.162;2023-04-28T18:31:04;6.25;;;4.20;;
18194;SDS011;9223;50.988;3.162;2023-04-28T18:37:07;8.50;;;5.32;;
18194;SDS011;9223;50.988;3.162;2023-04-28T18:43:12;8.32;;;5.95;;
18194;SDS011;9223;50.988;3.162;2023-04-28T18:49:17;10.35;;;6.60;;
18194;SDS011;9223;50.988;3.162;2023-04-28T18:55:21;12.13;;;6.20;;
18194;SDS011;9223;50.988;3.162;2023-04-28T19:01:24;10.73;;;6.38;;
18194;SDS011;9223;50.988;3.162;2023-04-28T19:07:29;10.02;;;6.25;;
18194;SDS011;9223;50.988;3.162;2023-04-28T19:13:33;8.75;;;6.47;;
18194;SDS011;9223;50.988;3.162;2023-04-28T19:19:36;10.00;;;6.38;;
18194;SDS011;9223;50.988;3.162;2023-04-28T19:25:41;11.38;;;6.45;;
18194;SDS011;9223;50.988;3.162;2023-04-28T19:31:44;11.63;;;6.93;;
18194;SDS011;9223;50.988;3.162;2023-04-28T19:37:49;10.32;;;7.00;;
18194;SDS011;9223;50.988;3.162;2023-04-28T19:43:54;12.30;;;7.57;;
18194;SDS011;9223;50.988;3.162;2023-04-28T19:49:58;10.82;;;7.18;;
18194;SDS011;9223;50.988;3.162;2023-04-28T19:56:01;11.27;;;7.82;;
18194;SDS011;9223;50.988;3.162;2023-04-28T20:02:07;13.32;;;7.75;;
18194;SDS011;9223;50.988;3.162;2023-04-28T20:08:11;10.75;;;8.00;;
18194;SDS011;9223;50.988;3.162;2023-04-28T20:14:14;10.00;;;8.63;;
18194;SDS011;9223;50.988;3.162;2023-04-28T20:20:20;13.77;;;8.50;;
18194;SDS011;9223;50.988;3.162;2023-04-28T20:26:24;11.00;;;8.90;;
18194;SDS011;9223;50.988;3.162;2023-04-28T20:32:27;12.90;;;9.32;;
18194;SDS011;9223;50.988;3.162;2023-04-28T20:38:32;13.75;;;9.73;;
18194;SDS011;9223;50.988;3.162;2023-04-28T20:44:37;14.52;;;9.90;;
18194;SDS011;9223;50.988;3.162;2023-04-28T20:50:41;16.52;;;10.68;;
18194;SDS011;9223;50.988;3.162;2023-04-28T20:56:46;14.98;;;10.32;;
18194;SDS011;9223;50.988;3.162;2023-04-28T21:02:50;12.40;;;9.15;;
18194;SDS011;9223;50.988;3.162;2023-04-28T21:08:54;13.45;;;8.65;;
18194;SDS011;9223;50.988;3.162;2023-04-28T21:14:59;14.57;;;9.48;;
18194;SDS011;9223;50.988;3.162;2023-04-28T21:21:03;12.77;;;9.65;;
18194;SDS011;9223;50.988;3.162;2023-04-28T21:27:06;13.73;;;8.88;;
18194;SDS011;9223;50.988;3.162;2023-04-28T21:33:11;12.98;;;9.55;;
18194;SDS011;9223;50.988;3.162;2023-04-28T21:39:15;13.70;;;10.23;;
18194;SDS011;9223;50.988;3.162;2023-04-28T21:45:18;14.25;;;10.50;;
18194;SDS011;9223;50.988;3.162;2023-04-28T21:51:23;14.18;;;9.93;;
18194;SDS011;9223;50.988;3.162;2023-04-28T21:57:27;12.38;;;9.88;;
18194;SDS011;9223;50.988;3.162;2023-04-28T22:03:31;15.32;;;11.75;;
18194;SDS011;9223;50.988;3.162;2023-04-28T22:09:38;18.10;;;12.50;;
18194;SDS011;9223;50.988;3.162;2023-04-28T22:15:41;16.33;;;13.23;;
18194;SDS011;9223;50.988;3.162;2023-04-28T22:21:45;21.92;;;14.68;;
18194;SDS011;9223;50.988;3.162;2023-04-28T22:27:49;28.27;;;17.35;;
18194;SDS011;9223;50.988;3.162;2023-04-28T22:33:53;28.38;;;17.08;;
18194;SDS011;9223;50.988;3.162;2023-04-28T22:39:56;27.00;;;15.45;;
18194;SDS011;9223;50.988;3.162;2023-04-28T22:46:01;25.83;;;15.77;;
18194;SDS011;9223;50.988;3.162;2023-04-28T22:52:05;24.33;;;15.30;;
18194;SDS011;9223;50.988;3.162;2023-04-28T22:58:08;23.58;;;14.45;;
18194;SDS011;9223;50.988;3.162;2023-04-28T23:04:13;21.55;;;13.02;;
18194;SDS011;9223;50.988;3.162;2023-04-28T23:10:18;22.02;;;13.90;;
18194;SDS011;9223;50.988;3.162;2023-04-28T23:16:22;20.33;;;12.85;;
18194;SDS011;9223;50.988;3.162;2023-04-28T23:22:27;21.80;;;12.15;;
18194;SDS011;9223;50.988;3.162;2023-04-28T23:28:30;19.73;;;12.35;;
18194;SDS011;9223;50.988;3.162;2023-04-28T23:34:34;17.13;;;12.02;;
18194;SDS011;9223;50.988;3.162;2023-04-28T23:40:39;19.55;;;12.35;;
18194;SDS011;9223;50.988;3.162;2023-04-28T23:46:43;20.80;;;11.48;;
18194;SDS011;9223;50.988;3.162;2023-04-28T23:52:47;19.20;;;11.95;;
18194;SDS011;9223;50.988;3.162;2023-04-28T23:58:52;18.20;;;11.80;;
